createdAt,value
2022-10-20T00:01:23.633Z,99794.28
2022-10-20T00:03:51.516Z,99798.50
2022-10-20T00:06:24.857Z,99794.28
2022-10-20T00:08:53.802Z,99778.16
2022-10-20T00:11:23.252Z,99788.34
2022-10-20T00:13:53.166Z,99774.78
2022-10-20T00:16:22.313Z,99770.53
2022-10-20T00:18:49.086Z,99769.69
2022-10-20T00:21:20.364Z,99763.75
2022-10-20T00:23:47.452Z,99772.25
2022-10-20T00:26:18.112Z,99763.78
2022-10-20T00:28:45.399Z,99762.94
2022-10-20T00:31:12.978Z,99763.78
2022-10-20T00:33:40.402Z,99761.22
2022-10-20T00:36:12.137Z,99755.28
2022-10-20T00:38:39.000Z,99762.91
2022-10-20T00:41:06.211Z,99756.13
2022-10-20T00:43:48.006Z,99758.69
2022-10-20T00:46:20.712Z,99756.19
2022-10-20T00:48:53.744Z,99752.78
2022-10-20T00:51:26.233Z,99752.78
2022-10-20T00:54:06.772Z,99755.34
2022-10-20T00:56:34.597Z,99758.78
2022-10-20T00:59:03.975Z,99752.84
2022-10-20T01:01:31.687Z,99745.22
2022-10-20T01:03:59.266Z,99746.06
2022-10-20T01:06:26.072Z,99737.59
2022-10-20T01:08:54.781Z,99726.56
2022-10-20T01:11:44.644Z,99729.13
2022-10-20T01:14:29.293Z,99718.13
2022-10-20T01:17:15.039Z,99711.38
2022-10-20T01:19:47.872Z,99704.59
2022-10-20T01:22:59.698Z,99715.66
2022-10-20T01:25:39.915Z,99690.25
2022-10-20T01:28:42.020Z,99691.97
2022-10-20T01:31:35.618Z,99689.41
2022-10-20T01:34:27.601Z,99685.19
2022-10-20T01:37:12.361Z,99682.59
2022-10-20T01:39:52.385Z,99688.53
2022-10-20T01:42:24.359Z,99688.53
2022-10-20T01:44:58.358Z,99687.66
2022-10-20T01:47:29.067Z,99677.47
2022-10-20T01:49:58.004Z,99662.19
2022-10-20T01:52:28.559Z,99663.03
2022-10-20T01:54:55.364Z,99655.38
2022-10-20T01:58:23.278Z,99644.41
2022-10-20T02:00:54.072Z,99640.22
2022-10-20T02:03:52.670Z,99646.19
2022-10-20T02:06:35.840Z,99645.38
2022-10-20T02:09:08.365Z,99641.97
2022-10-20T02:11:54.757Z,99635.19
2022-10-20T02:14:23.272Z,99630.94
2022-10-20T02:16:57.632Z,99632.63
2022-10-20T02:19:31.076Z,99632.63
2022-10-20T02:21:58.217Z,99626.66
2022-10-20T02:24:35.466Z,99624.94
2022-10-20T02:27:13.358Z,99627.47
2022-10-20T02:29:47.461Z,99630.84
2022-10-20T02:32:17.566Z,99631.69
2022-10-20T02:34:45.091Z,99630.00
2022-10-20T02:37:11.963Z,99629.16
2022-10-20T02:39:38.696Z,99622.31
2022-10-20T02:42:06.560Z,99615.53
2022-10-20T02:44:33.324Z,99614.63
2022-10-20T02:47:00.109Z,99612.09
2022-10-20T02:49:27.332Z,99609.53
2022-10-20T02:51:54.378Z,99607.00
2022-10-20T02:54:21.342Z,99598.53
2022-10-20T02:56:48.124Z,99601.94
2022-10-20T02:59:16.872Z,99601.09
2022-10-20T03:01:44.266Z,99593.44
2022-10-20T03:04:12.129Z,99588.38
2022-10-20T03:06:40.779Z,99595.94
2022-10-20T03:09:07.826Z,99583.25
2022-10-20T03:11:34.973Z,99589.16
2022-10-20T03:14:02.109Z,99583.22
2022-10-20T03:16:29.121Z,99582.34
2022-10-20T03:18:59.919Z,99583.22
2022-10-20T03:21:30.193Z,99566.28
2022-10-20T03:23:56.927Z,99566.28
2022-10-20T03:26:23.775Z,99569.66
2022-10-20T03:28:50.508Z,99573.06
2022-10-20T03:31:17.433Z,99570.50
2022-10-20T03:33:44.165Z,99567.97
2022-10-20T03:36:11.469Z,99567.09
2022-10-20T03:38:42.037Z,99557.78
2022-10-20T03:41:09.895Z,99560.31
2022-10-20T03:43:38.129Z,99551.81
2022-10-20T03:46:09.462Z,99552.63
2022-10-20T03:48:37.949Z,99550.09
2022-10-20T03:51:05.912Z,99544.19
2022-10-20T03:53:33.254Z,99535.69
2022-10-20T03:56:04.704Z,99543.34
2022-10-20T03:58:31.379Z,99534.06
2022-10-20T04:00:58.329Z,99528.97
2022-10-20T04:03:25.046Z,99523.91
2022-10-20T04:05:51.758Z,99520.56
2022-10-20T04:08:18.573Z,99514.69
2022-10-20T04:10:45.433Z,99515.53
2022-10-20T04:13:12.146Z,99512.13
2022-10-20T04:15:38.832Z,99501.97
2022-10-20T04:18:05.693Z,99502.78
2022-10-20T04:20:32.498Z,99506.16
2022-10-20T04:22:59.179Z,99510.38
2022-10-20T04:25:25.940Z,99511.22
2022-10-20T04:27:52.627Z,99513.69
2022-10-20T04:30:19.388Z,99503.53
2022-10-20T04:32:46.083Z,99495.91
2022-10-20T04:35:12.778Z,99484.00
2022-10-20T04:37:39.880Z,99478.88
2022-10-20T04:40:07.563Z,99473.78
2022-10-20T04:42:34.319Z,99488.19
2022-10-20T04:45:01.056Z,99473.78
2022-10-20T04:47:33.070Z,99467.91
2022-10-20T04:49:59.869Z,99475.53
2022-10-20T04:52:28.678Z,99465.38
2022-10-20T04:54:55.438Z,99454.34
2022-10-20T04:57:22.229Z,99459.41
2022-10-20T04:59:49.062Z,99454.34
2022-10-20T05:02:15.884Z,99453.50
2022-10-20T05:04:42.552Z,99466.22
2022-10-20T05:07:09.299Z,99454.38
2022-10-20T05:09:36.177Z,99450.13
2022-10-20T05:12:03.275Z,99448.41
2022-10-20T05:14:30.234Z,99437.41
2022-10-20T05:16:56.942Z,99440.00
2022-10-20T05:19:23.814Z,99441.66
2022-10-20T05:21:50.546Z,99428.03
2022-10-20T05:24:21.278Z,99437.38
2022-10-20T05:26:49.500Z,99433.13
2022-10-20T05:29:16.338Z,99437.31
2022-10-20T05:31:44.125Z,99428.00
2022-10-20T05:34:11.726Z,99420.38
2022-10-20T05:36:39.093Z,99413.56
2022-10-20T05:39:06.181Z,99404.25
2022-10-20T05:41:37.822Z,99399.19
2022-10-20T05:44:08.874Z,99404.28
2022-10-20T05:46:40.993Z,99394.09
2022-10-20T05:49:12.422Z,99414.47
2022-10-20T05:51:39.295Z,99404.31
2022-10-20T05:54:06.118Z,99404.28
2022-10-20T05:56:34.206Z,99420.41
2022-10-20T05:59:00.898Z,99416.13
2022-10-20T06:01:39.898Z,99412.78
2022-10-20T06:04:10.791Z,99401.78
2022-10-20T06:06:37.480Z,99397.53
2022-10-20T06:09:07.893Z,99401.00
2022-10-20T06:11:39.312Z,99402.66
2022-10-20T06:14:07.966Z,99402.03
2022-10-20T06:16:35.243Z,99412.41
2022-10-20T06:19:02.646Z,99407.41
2022-10-20T06:21:32.952Z,99413.38
2022-10-20T06:24:01.922Z,99415.91
2022-10-20T06:26:31.915Z,99413.34
2022-10-20T06:29:03.953Z,99405.75
2022-10-20T06:31:39.106Z,99410.81
2022-10-20T06:34:14.624Z,99410.81
2022-10-20T06:36:42.621Z,99419.31
2022-10-20T06:39:14.154Z,99426.09
2022-10-20T06:41:41.414Z,99426.88
2022-10-20T06:44:08.299Z,99420.09
2022-10-20T06:46:37.390Z,99426.84
2022-10-20T06:49:07.880Z,99439.53
2022-10-20T06:51:35.816Z,99437.78
2022-10-20T06:54:03.212Z,99443.69
2022-10-20T06:56:33.365Z,99446.16
2022-10-20T06:59:02.036Z,99459.63
2022-10-20T07:01:35.971Z,99453.63
2022-10-20T07:04:11.036Z,99457.78
2022-10-20T07:06:41.811Z,99441.59
2022-10-20T07:09:13.899Z,99438.97
2022-10-20T07:11:41.553Z,99439.81
2022-10-20T07:14:10.643Z,99434.63
2022-10-20T07:16:37.386Z,99432.09
2022-10-20T07:19:04.861Z,99429.50
2022-10-20T07:21:35.965Z,99431.16
2022-10-20T07:24:06.373Z,99443.84
2022-10-20T07:26:36.952Z,99452.28
2022-10-20T07:29:06.237Z,99439.44
2022-10-20T07:31:39.985Z,99447.78
2022-10-20T07:34:24.310Z,99466.34
2022-10-20T07:36:52.990Z,99471.28
2022-10-20T07:39:19.945Z,99465.25
2022-10-20T07:41:48.097Z,99461.69
2022-10-20T07:44:16.565Z,99470.88
2022-10-20T07:46:43.606Z,99482.56
2022-10-20T07:49:42.896Z,99468.91
2022-10-20T07:51:57.253Z,99467.09
2022-10-20T07:54:24.210Z,99460.19
2022-10-20T07:56:51.354Z,99456.63
2022-10-20T07:59:19.046Z,99459.00
2022-10-20T08:01:46.123Z,99469.00
2022-10-20T08:04:12.886Z,99472.28
2022-10-20T08:06:39.746Z,99470.53
2022-10-20T08:09:07.416Z,99458.50
2022-10-20T08:11:35.138Z,99444.84
2022-10-20T08:14:02.030Z,99444.84
2022-10-20T08:16:36.545Z,99444.03
2022-10-20T08:19:10.661Z,99457.59
2022-10-20T08:21:37.604Z,99463.59
2022-10-20T08:24:04.619Z,99476.31
2022-10-20T08:26:31.419Z,99464.44
2022-10-20T08:28:58.098Z,99467.81
2022-10-20T08:31:24.905Z,99473.72
2022-10-20T08:33:53.087Z,99483.88
2022-10-20T08:36:21.192Z,99474.50
2022-10-20T08:38:48.788Z,99459.09
2022-10-20T08:41:27.017Z,99458.06
2022-10-20T08:43:57.929Z,99449.44
2022-10-20T08:46:32.910Z,99458.66
2022-10-20T08:49:00.414Z,99440.66
2022-10-20T08:51:38.383Z,99437.97
2022-10-20T08:54:12.653Z,99432.69
2022-10-20T08:56:39.424Z,99424.91
2022-10-20T08:59:34.536Z,99419.66
2022-10-20T09:02:07.040Z,99418.75
2022-10-20T09:05:00.886Z,99416.91
2022-10-20T09:07:48.338Z,99410.94
2022-10-20T09:10:35.805Z,99413.50
2022-10-20T09:13:11.278Z,99422.84
2022-10-20T09:15:38.956Z,99425.44
2022-10-20T09:18:12.019Z,99425.59
2022-10-20T09:21:00.458Z,99416.41
2022-10-20T09:23:48.267Z,99431.94
2022-10-20T09:26:37.533Z,99422.69
2022-10-20T09:29:15.349Z,99443.22
2022-10-20T09:31:55.020Z,99444.00
2022-10-20T09:34:29.768Z,99435.53
2022-10-20T09:37:07.488Z,99455.09
2022-10-20T09:39:51.313Z,99466.97
2022-10-20T09:42:27.387Z,99476.31
2022-10-20T09:45:23.948Z,99487.28
2022-10-20T09:48:17.482Z,99485.50
2022-10-20T09:50:51.083Z,99491.34
2022-10-20T09:53:23.762Z,99480.94
2022-10-20T09:55:51.710Z,99467.16
2022-10-20T09:58:30.771Z,99460.13
2022-10-20T10:01:15.974Z,99457.47
2022-10-20T10:03:49.266Z,99474.38
2022-10-20T10:06:33.596Z,99482.00
2022-10-20T10:09:02.448Z,99470.91
2022-10-20T10:11:35.684Z,99467.53
2022-10-20T10:14:04.704Z,99466.59
2022-10-20T10:16:42.907Z,99457.97
2022-10-20T10:19:19.358Z,99453.69
2022-10-20T10:21:53.717Z,99455.22
2022-10-20T10:24:47.107Z,99447.41
2022-10-20T10:27:36.162Z,99423.41
2022-10-20T10:30:27.613Z,99428.31
2022-10-20T10:32:55.665Z,99431.50
2022-10-20T10:35:28.895Z,99422.00
2022-10-20T10:37:57.953Z,99435.44
2022-10-20T10:40:57.025Z,99444.69
2022-10-20T10:43:33.679Z,99446.38
2022-10-20T10:46:07.761Z,99450.72
2022-10-20T10:48:54.533Z,99454.28
2022-10-20T10:51:38.094Z,99466.47
2022-10-20T10:54:29.740Z,99470.13
2022-10-20T10:57:49.374Z,99466.97
2022-10-20T11:00:50.017Z,99459.63
2022-10-20T11:03:54.745Z,99467.44
2022-10-20T11:06:47.700Z,99456.34
2022-10-20T11:09:43.323Z,99457.16
2022-10-20T11:12:47.446Z,99454.53
2022-10-20T11:15:44.200Z,99451.97
2022-10-20T11:18:44.534Z,99454.41
2022-10-20T11:21:36.943Z,99453.44
2022-10-20T11:24:47.850Z,99438.06
2022-10-20T11:27:22.941Z,99423.50
2022-10-20T11:29:58.105Z,99420.91
2022-10-20T11:32:38.025Z,99420.03
2022-10-20T11:35:38.411Z,99401.22
2022-10-20T11:38:26.406Z,99410.63
2022-10-20T11:41:04.028Z,99405.50
2022-10-20T11:43:50.437Z,99400.41
2022-10-20T11:46:41.841Z,99390.19
2022-10-20T11:49:12.056Z,99394.53
2022-10-20T11:51:56.548Z,99397.06
2022-10-20T11:54:38.144Z,99380.88
2022-10-20T11:57:29.555Z,99388.59
2022-10-20T12:00:33.421Z,99384.31
2022-10-20T12:03:30.763Z,99382.53
2022-10-20T12:06:10.363Z,99379.81
2022-10-20T12:09:13.998Z,99380.38
2022-10-20T12:12:03.744Z,99378.44
2022-10-20T12:14:51.648Z,99374.03
2022-10-20T12:17:31.126Z,99379.78
2022-10-20T12:20:38.725Z,99385.41
2022-10-20T12:23:05.800Z,99382.66
2022-10-20T12:25:40.452Z,99373.00
2022-10-20T12:28:22.634Z,99377.00
2022-10-20T12:31:04.834Z,99366.59
2022-10-20T12:33:49.679Z,99371.44
2022-10-20T12:36:19.079Z,99378.03
2022-10-20T12:38:54.555Z,99358.22
2022-10-20T12:41:35.216Z,99358.13
2022-10-20T12:44:06.886Z,99354.56
2022-10-20T12:46:41.494Z,99345.16
2022-10-20T12:49:23.677Z,99334.09
2022-10-20T12:51:56.643Z,99334.91
2022-10-20T12:54:26.584Z,99337.38
2022-10-20T12:57:00.169Z,99337.31
2022-10-20T12:59:29.575Z,99344.88
2022-10-20T13:02:11.290Z,99336.19
2022-10-20T13:04:59.802Z,99337.69
2022-10-20T13:07:59.731Z,99334.06
2022-10-20T13:10:37.998Z,99339.06
2022-10-20T13:13:04.602Z,99331.19
2022-10-20T13:15:44.487Z,99329.31
2022-10-20T13:18:15.966Z,99324.09
2022-10-20T13:21:01.231Z,99324.03
2022-10-20T13:23:41.017Z,99317.97
2022-10-20T13:26:32.171Z,99311.88
2022-10-20T13:29:01.367Z,99316.13
2022-10-20T13:31:42.071Z,99310.06
2022-10-20T13:34:26.850Z,99304.81
2022-10-20T13:37:53.226Z,99291.72
2022-10-20T13:40:30.120Z,99279.59
2022-10-20T13:43:36.716Z,99277.56
2022-10-20T13:46:52.858Z,99293.53
2022-10-20T13:50:12.418Z,99288.31
2022-10-20T13:52:45.160Z,99280.56
2022-10-20T13:55:28.872Z,99273.59
2022-10-20T13:58:20.238Z,99275.25
2022-10-20T14:01:01.281Z,99276.09
2022-10-20T14:03:30.970Z,99274.38
2022-10-20T14:05:59.276Z,99270.03
2022-10-20T14:08:26.380Z,99264.84
2022-10-20T14:11:08.439Z,99270.78
2022-10-20T14:13:36.780Z,99272.53
2022-10-20T14:16:19.784Z,99282.72
2022-10-20T14:19:06.202Z,99286.88
2022-10-20T14:21:45.734Z,99283.31
2022-10-20T14:24:29.190Z,99274.66
2022-10-20T14:29:38.994Z,99279.44
2022-10-20T14:32:06.904Z,99275.91
2022-10-20T14:34:36.421Z,99281.56
2022-10-20T14:37:29.923Z,99271.09
2022-10-20T14:40:00.196Z,99263.28
2022-10-20T14:42:32.233Z,99278.50
2022-10-20T14:45:01.835Z,99275.81
2022-10-20T14:47:41.823Z,99260.31
2022-10-20T14:50:25.723Z,99262.75
2022-10-20T14:52:54.170Z,99261.72
2022-10-20T14:55:37.219Z,99259.88
2022-10-20T14:58:04.118Z,99258.03
2022-10-20T15:00:36.299Z,99259.56
2022-10-20T15:03:07.191Z,99253.25
2022-10-20T15:05:39.676Z,99259.03
2022-10-20T15:08:26.602Z,99250.31
2022-10-20T15:10:53.907Z,99241.72
2022-10-20T15:13:33.176Z,99238.97
2022-10-20T15:16:02.862Z,99244.75
2022-10-20T15:18:30.327Z,99236.84
2022-10-20T15:20:57.483Z,99242.59
2022-10-20T15:23:28.389Z,99249.16
2022-10-20T15:26:06.435Z,99242.09
2022-10-20T15:28:48.304Z,99243.66
2022-10-20T15:31:28.526Z,99239.16
2022-10-20T15:33:58.261Z,99235.53
2022-10-20T15:36:31.719Z,99234.44
2022-10-20T15:38:59.289Z,99228.06
2022-10-20T15:41:30.492Z,99227.09
2022-10-20T15:44:22.917Z,99226.78
2022-10-20T15:46:53.524Z,99225.91
2022-10-20T15:49:20.715Z,99224.94
2022-10-20T15:51:50.317Z,99224.84
2022-10-20T15:54:20.562Z,99217.16
2022-10-20T15:56:47.870Z,99216.31
2022-10-20T15:59:14.864Z,99221.63
2022-10-20T16:01:41.608Z,99209.75
2022-10-20T16:04:26.320Z,99215.84
2022-10-20T16:06:59.020Z,99209.19
2022-10-20T16:09:28.737Z,99201.66
2022-10-20T16:11:55.511Z,99192.44
2022-10-20T16:14:22.197Z,99198.47
2022-10-20T16:16:48.979Z,99192.59
2022-10-20T16:19:15.660Z,99189.31
2022-10-20T16:21:42.403Z,99190.34
2022-10-20T16:24:09.174Z,99189.66
2022-10-20T16:26:35.903Z,99191.41
2022-10-20T16:29:02.619Z,99194.94
2022-10-20T16:31:29.528Z,99190.03
2022-10-20T16:34:00.092Z,99191.97
2022-10-20T16:36:26.956Z,99193.81
2022-10-20T16:38:57.420Z,99196.53
2022-10-20T16:41:24.885Z,99189.09
2022-10-20T16:43:51.649Z,99192.69
2022-10-20T16:46:18.857Z,99185.13
2022-10-20T16:48:47.970Z,99187.81
2022-10-20T16:51:15.707Z,99188.84
2022-10-20T16:53:42.574Z,99181.38
2022-10-20T16:56:09.737Z,99179.88
2022-10-20T16:58:36.554Z,99182.72
2022-10-20T17:01:12.355Z,99176.09
2022-10-20T17:06:20.345Z,99186.81
2022-10-20T17:08:47.267Z,99181.88
2022-10-20T17:11:21.928Z,99181.13
2022-10-20T17:13:48.767Z,99183.00
2022-10-20T17:16:29.165Z,99190.88
2022-10-20T17:18:58.505Z,99185.06
2022-10-20T17:21:26.418Z,99190.34
2022-10-20T17:23:53.197Z,99176.00
2022-10-20T17:26:26.375Z,99178.03
2022-10-20T17:28:58.861Z,99185.78
2022-10-20T17:31:26.079Z,99190.22
2022-10-20T17:33:54.772Z,99179.94
2022-10-20T17:36:26.010Z,99179.81
2022-10-20T17:39:00.048Z,99190.94
2022-10-20T17:41:27.339Z,99187.56
2022-10-20T17:43:54.169Z,99186.75
2022-10-20T17:46:21.670Z,99187.50
2022-10-20T17:48:48.432Z,99189.19
2022-10-20T17:51:19.543Z,99194.19
2022-10-20T17:53:49.463Z,99188.16
2022-10-20T17:56:20.397Z,99178.72
2022-10-20T17:58:49.214Z,99177.91
2022-10-20T18:01:22.117Z,99174.44
2022-10-20T18:03:54.649Z,99172.72
2022-10-20T18:06:24.257Z,99171.00
2022-10-20T18:08:55.913Z,99171.00
2022-10-20T18:11:27.373Z,99165.81
2022-10-20T18:13:57.601Z,99154.59
2022-10-20T18:16:25.406Z,99147.00
2022-10-20T18:18:52.538Z,99146.81
2022-10-20T18:21:20.405Z,99147.66
2022-10-20T18:23:48.359Z,99148.56
2022-10-20T18:26:20.129Z,99146.00
2022-10-20T18:28:48.713Z,99143.44
2022-10-20T18:31:21.004Z,99147.72
2022-10-20T18:33:50.684Z,99150.22
2022-10-20T18:36:19.186Z,99151.75
2022-10-20T18:38:47.335Z,99133.75
2022-10-20T18:41:20.666Z,99134.44
2022-10-20T18:43:57.641Z,99129.91
2022-10-20T18:46:30.365Z,99129.88
2022-10-20T18:49:03.250Z,99139.88
2022-10-20T18:51:32.045Z,99135.50
2022-10-20T18:54:00.706Z,99136.28
2022-10-20T18:56:29.921Z,99121.66
2022-10-20T18:59:08.947Z,99127.50
2022-10-20T19:01:39.100Z,99124.59
2022-10-20T19:04:08.502Z,99110.59
2022-10-20T19:06:39.817Z,99118.84
2022-10-20T19:09:16.952Z,99116.81
2022-10-20T19:11:44.928Z,99128.44
2022-10-20T19:14:12.266Z,99121.31
2022-10-20T19:16:42.101Z,99106.47
2022-10-20T19:19:10.862Z,99108.69
2022-10-20T19:21:38.421Z,99099.91
2022-10-20T19:24:16.010Z,99101.28
2022-10-20T19:26:57.094Z,99095.19
2022-10-20T19:29:29.720Z,99101.91
2022-10-20T19:32:00.107Z,99095.72
2022-10-20T19:34:40.010Z,99087.81
2022-10-20T19:37:07.912Z,99090.41
2022-10-20T19:39:39.675Z,99080.94
2022-10-20T19:42:09.091Z,99074.06
2022-10-20T19:44:38.061Z,99076.63
2022-10-20T19:47:06.184Z,99068.91
2022-10-20T19:49:33.479Z,99059.63
2022-10-20T19:52:00.295Z,99057.19
2022-10-20T19:54:27.488Z,99049.56
2022-10-20T19:56:54.364Z,99045.50
2022-10-20T19:59:21.357Z,99041.34
2022-10-20T20:01:49.622Z,99037.16
2022-10-20T20:04:16.574Z,99041.53
2022-10-20T20:06:43.323Z,99050.13
2022-10-20T20:09:11.878Z,99041.59
2022-10-20T20:11:39.980Z,99039.91
2022-10-20T20:14:12.378Z,99033.19
2022-10-20T20:16:39.875Z,99043.53
2022-10-20T20:19:07.112Z,99039.38
2022-10-20T20:21:34.065Z,99037.78
2022-10-20T20:24:03.517Z,99037.69
2022-10-20T20:26:37.007Z,99032.50
2022-10-20T20:29:05.240Z,99019.72
2022-10-20T20:31:33.036Z,99013.69
2022-10-20T20:33:59.808Z,99010.22
2022-10-20T20:36:28.089Z,99013.56
2022-10-20T20:38:58.168Z,99009.16
2022-10-20T20:41:30.018Z,99005.69
2022-10-20T20:43:57.448Z,99013.41
2022-10-20T20:46:29.022Z,99024.44
2022-10-20T20:48:56.681Z,99023.63
2022-10-20T20:51:25.356Z,99012.53
2022-10-20T20:53:52.018Z,99021.09
2022-10-20T20:56:21.772Z,99018.63
2022-10-20T20:58:50.465Z,99019.59
2022-10-20T21:01:27.043Z,99020.66
2022-10-20T21:04:00.408Z,99015.78
2022-10-20T21:06:33.603Z,99022.94
2022-10-20T21:09:01.557Z,99024.97
2022-10-20T21:11:28.468Z,99030.38
2022-10-20T21:13:58.720Z,99039.13
2022-10-20T21:16:32.703Z,99043.63
2022-10-20T21:19:08.490Z,99039.44
2022-10-20T21:21:47.020Z,99052.44
2022-10-20T21:24:13.842Z,99049.16
2022-10-20T21:26:40.801Z,99050.06
2022-10-20T21:29:07.573Z,99062.06
2022-10-20T21:31:34.394Z,99062.06
2022-10-20T21:34:04.654Z,99064.56
2022-10-20T21:36:35.230Z,99058.53
2022-10-20T21:39:05.243Z,99064.41
2022-10-20T21:41:34.944Z,99066.97
2022-10-20T21:44:04.769Z,99069.53
2022-10-20T21:46:42.041Z,99065.31
2022-10-20T21:49:13.783Z,99080.78
2022-10-20T21:51:48.276Z,99083.41
2022-10-20T21:56:48.690Z,99090.47
2022-10-20T21:59:30.976Z,99107.69
2022-10-20T22:02:01.141Z,99105.22
2022-10-20T22:04:29.837Z,99095.03
2022-10-20T22:06:57.602Z,99081.38
2022-10-20T22:09:24.633Z,99077.97
2022-10-20T22:11:55.459Z,99063.44
2022-10-20T22:14:23.339Z,99049.50
2022-10-20T22:16:50.501Z,99045.88
2022-10-20T22:19:23.638Z,99051.59
2022-10-20T22:21:52.940Z,99036.81
2022-10-20T22:24:21.298Z,99036.53
2022-10-20T22:26:51.393Z,99032.75
2022-10-20T22:29:20.721Z,99019.53
2022-10-20T22:31:47.771Z,99008.16
2022-10-20T22:34:14.670Z,99016.41
2022-10-20T22:36:41.409Z,98994.75
2022-10-20T22:39:08.846Z,99006.47
2022-10-20T22:41:36.447Z,98990.94
2022-10-20T22:44:03.244Z,98986.44
2022-10-20T22:46:29.961Z,98973.44
2022-10-20T22:51:23.412Z,98964.53
2022-10-20T22:53:50.257Z,98964.44
2022-10-20T22:56:23.186Z,98962.69
2022-10-20T22:58:53.516Z,98947.38
2022-10-20T23:01:23.049Z,98955.16
2022-10-20T23:03:50.614Z,98964.56
2022-10-20T23:06:22.670Z,98982.44
2022-10-20T23:08:53.411Z,98976.31
2022-10-20T23:11:21.246Z,98994.28
2022-10-20T23:13:49.837Z,98998.53
2022-10-20T23:16:16.964Z,99000.25
2022-10-20T23:18:43.854Z,99007.97
2022-10-20T23:21:13.491Z,99017.41
2022-10-20T23:23:41.019Z,99008.94
2022-10-20T23:26:09.302Z,99019.22
2022-10-20T23:28:37.785Z,99021.03
2022-10-20T23:31:16.906Z,99016.03
2022-10-20T23:33:46.105Z,99026.22
2022-10-20T23:36:15.465Z,99020.44
2022-10-20T23:38:43.306Z,99016.19
2022-10-20T23:41:10.551Z,99018.91
2022-10-20T23:43:37.382Z,99011.25
2022-10-20T23:46:04.514Z,99009.63
2022-10-20T23:48:31.240Z,98997.75
2022-10-20T23:50:58.220Z,99005.59
2022-10-20T23:53:25.424Z,98991.19
2022-10-20T23:55:52.503Z,98984.53
2022-10-20T23:58:22.163Z,98988.91
